Glen Ullin, North Dakota
Current Conditions -  °F | °C
As of 6:15 PM on Monday 26 Jan 2015 (Local Time) from KD57 Reporting Station
Clear Clear  
Wind Chill: 34°   Ceiling: Unl
Heat Index: 34°   Visibility: 10mi
Dew Point: 30°   Wind: 0mph
Humidity: 87%   Direction: NA
Pressure: 29.94"   Gusts: NA
Location:  46.82°N, 101.83°W
Report Text: KD57 270115Z AUTO 00000KT 10SM CLR 01/M01 A2994 RMK AO2
Loading
Personal Weather Stations






























Interactive Weather Map New forecast layout! Learn more

10-Day Weather Forecast

Advertisements
Track Severe Weather on mobile